createdAt,value
2023-04-27T00:00:30.375Z,7.19
2023-04-27T00:01:30.356Z,7.17
2023-04-27T00:02:30.418Z,7.19
2023-04-27T00:03:30.637Z,7.19
2023-04-27T00:04:30.581Z,7.19
2023-04-27T00:05:30.457Z,7.19
2023-04-27T00:06:30.291Z,7.17
2023-04-27T00:07:30.261Z,7.19
2023-04-27T00:08:30.358Z,7.19
2023-04-27T00:09:30.261Z,7.19
2023-04-27T00:10:30.224Z,7.17
2023-04-27T00:11:30.217Z,7.17
2023-04-27T00:12:30.205Z,7.17
2023-04-27T00:13:30.186Z,7.16
2023-04-27T00:14:30.175Z,7.16
2023-04-27T00:15:30.184Z,7.16
2023-04-27T00:16:30.160Z,7.16
2023-04-27T00:17:30.212Z,7.16
2023-04-27T00:18:30.133Z,7.15
2023-04-27T00:19:30.133Z,7.13
2023-04-27T00:20:30.101Z,7.13
2023-04-27T00:21:30.075Z,7.15
2023-04-27T00:22:30.082Z,7.16
2023-04-27T00:23:30.092Z,7.16
2023-04-27T00:24:30.054Z,7.16
2023-04-27T00:25:30.053Z,7.15
2023-04-27T00:26:30.013Z,7.15
2023-04-27T00:27:30.014Z,7.15
2023-04-27T00:28:29.984Z,7.15
2023-04-27T00:29:29.990Z,7.12
2023-04-27T00:30:29.978Z,7.12
2023-04-27T00:31:30.062Z,7.12
2023-04-27T00:32:29.958Z,7.09
2023-04-27T00:33:29.915Z,7.08
2023-04-27T00:34:29.904Z,7.09
2023-04-27T00:35:29.900Z,7.09
2023-04-27T00:36:29.903Z,7.12
2023-04-27T00:37:29.883Z,7.09
2023-04-27T00:38:29.853Z,7.09
2023-04-27T00:39:29.874Z,7.09
2023-04-27T00:40:29.823Z,7.09
2023-04-27T00:41:29.815Z,7.12
2023-04-27T00:42:29.835Z,7.08
2023-04-27T00:43:29.805Z,7.09
2023-04-27T00:44:29.774Z,7.08
2023-04-27T00:45:29.768Z,7.08
2023-04-27T00:46:29.807Z,7.08
2023-04-27T00:47:29.811Z,7.08
2023-04-27T00:48:29.722Z,7.09
2023-04-27T00:49:29.757Z,7.09
2023-04-27T00:50:29.715Z,7.12
2023-04-27T00:51:29.700Z,7.12
2023-04-27T00:52:29.670Z,7.08
2023-04-27T00:53:29.687Z,7.07
2023-04-27T00:54:29.661Z,7.07
2023-04-27T00:55:29.660Z,7.07
2023-04-27T00:56:29.637Z,7.05
2023-04-27T00:57:29.620Z,7.05
2023-04-27T00:58:29.604Z,7.04
2023-04-27T00:59:29.598Z,7.02
2023-04-27T01:00:29.600Z,7.04
2023-04-27T01:01:29.607Z,7.02
2023-04-27T01:02:29.700Z,7.02
2023-04-27T01:03:29.656Z,7.01
2023-04-27T01:04:29.691Z,7.01
2023-04-27T01:05:31.312Z,7.01
2023-04-27T01:06:29.488Z,6.99
2023-04-27T01:07:29.496Z,6.99
2023-04-27T01:08:29.487Z,6.99
2023-04-27T01:09:29.500Z,6.99
2023-04-27T01:10:29.436Z,6.99
2023-04-27T01:11:29.444Z,6.98
2023-04-27T01:12:29.411Z,6.98
2023-04-27T01:13:29.413Z,6.98
2023-04-27T01:14:29.389Z,6.97
2023-04-27T01:15:29.384Z,6.95
2023-04-27T01:16:29.449Z,6.97
2023-04-27T01:17:29.364Z,6.97
2023-04-27T01:18:29.331Z,6.98
2023-04-27T01:19:29.335Z,6.95
2023-04-27T01:20:29.337Z,6.91
2023-04-27T01:21:29.311Z,6.95
2023-04-27T01:22:29.306Z,6.95
2023-04-27T01:23:29.287Z,6.95
2023-04-27T01:24:29.268Z,6.94
2023-04-27T01:25:29.262Z,6.94
2023-04-27T01:26:29.232Z,6.94
2023-04-27T01:27:29.240Z,6.94
2023-04-27T01:28:29.220Z,6.94
2023-04-27T01:29:29.226Z,6.90
2023-04-27T01:30:29.187Z,6.89
2023-04-27T01:31:29.229Z,6.87
2023-04-27T01:32:29.222Z,6.86
2023-04-27T01:33:29.183Z,6.84
2023-04-27T01:34:29.142Z,6.84
2023-04-27T01:35:29.127Z,6.84
2023-04-27T01:36:29.118Z,6.84
2023-04-27T01:37:29.096Z,6.84
2023-04-27T01:38:29.093Z,6.83
2023-04-27T01:39:29.084Z,6.81
2023-04-27T01:40:29.053Z,6.83
2023-04-27T01:41:29.039Z,6.81
2023-04-27T01:42:29.058Z,6.81
2023-04-27T01:43:29.016Z,6.81
2023-04-27T01:44:28.998Z,6.80
2023-04-27T01:45:28.983Z,6.83
2023-04-27T01:46:29.019Z,6.81
2023-04-27T01:47:29.032Z,6.80
2023-04-27T01:48:28.959Z,6.79
2023-04-27T01:49:28.956Z,6.79
2023-04-27T01:50:28.926Z,6.80
2023-04-27T01:51:28.921Z,6.79
2023-04-27T01:52:28.913Z,6.77
2023-04-27T01:53:28.923Z,6.79
2023-04-27T01:54:28.922Z,6.76
2023-04-27T01:55:28.885Z,6.77
2023-04-27T01:56:28.857Z,6.76
2023-04-27T01:57:28.857Z,6.73
2023-04-27T01:58:28.813Z,6.72
2023-04-27T01:59:28.827Z,6.71
2023-04-27T02:00:28.816Z,6.71
2023-04-27T02:01:28.854Z,6.68
2023-04-27T02:02:28.878Z,6.68
2023-04-27T02:03:28.853Z,6.66
2023-04-27T02:04:28.804Z,6.65
2023-04-27T02:05:28.746Z,6.63
2023-04-27T02:06:28.759Z,6.63
2023-04-27T02:07:28.734Z,6.62
2023-04-27T02:08:28.722Z,6.62
2023-04-27T02:09:28.678Z,6.61
2023-04-27T02:10:28.691Z,6.59
2023-04-27T02:11:28.662Z,6.59
2023-04-27T02:12:28.662Z,6.58
2023-04-27T02:13:28.644Z,6.58
2023-04-27T02:14:28.643Z,6.58
2023-04-27T02:15:28.619Z,6.56
2023-04-27T02:16:28.622Z,6.56
2023-04-27T02:17:28.609Z,6.54
2023-04-27T02:18:28.582Z,6.54
2023-04-27T02:19:28.558Z,6.56
2023-04-27T02:20:28.559Z,6.53
2023-04-27T02:21:28.520Z,6.53
2023-04-27T02:22:28.524Z,6.53
2023-04-27T02:23:28.512Z,6.51
2023-04-27T02:24:28.491Z,6.50
2023-04-27T02:25:28.489Z,6.51
2023-04-27T02:26:28.454Z,6.48
2023-04-27T02:27:28.478Z,6.48
2023-04-27T02:28:28.447Z,6.44
2023-04-27T02:29:28.431Z,6.44
2023-04-27T02:30:28.408Z,6.44
2023-04-27T02:31:28.470Z,6.43
2023-04-27T02:32:28.428Z,6.44
2023-04-27T02:33:28.369Z,6.43
2023-04-27T02:34:28.359Z,6.43
2023-04-27T02:35:28.377Z,6.43
2023-04-27T02:36:28.344Z,6.41
2023-04-27T02:37:28.324Z,6.43
2023-04-27T02:38:28.323Z,6.41
2023-04-27T02:39:28.292Z,6.40
2023-04-27T02:40:28.317Z,6.41
2023-04-27T02:41:28.273Z,6.38
2023-04-27T02:42:28.262Z,6.38
2023-04-27T02:43:28.243Z,6.36
2023-04-27T02:44:28.246Z,6.35
2023-04-27T02:45:28.224Z,6.35
2023-04-27T02:46:28.305Z,6.35
2023-04-27T02:47:28.214Z,6.36
2023-04-27T02:48:28.187Z,6.38
2023-04-27T02:49:28.165Z,6.40
2023-04-27T02:50:28.163Z,6.40
2023-04-27T02:51:28.131Z,6.36
2023-04-27T02:52:28.125Z,6.36
2023-04-27T02:53:28.128Z,6.35
2023-04-27T02:54:28.112Z,6.36
2023-04-27T02:55:28.073Z,6.36
2023-04-27T02:56:28.098Z,6.33
2023-04-27T02:57:28.087Z,6.35
2023-04-27T02:58:28.065Z,6.35
2023-04-27T02:59:28.020Z,6.35
2023-04-27T03:00:28.033Z,6.35
2023-04-27T03:01:28.141Z,6.32
2023-04-27T03:02:40.490Z,6.35
2023-04-27T03:03:28.094Z,6.35
2023-04-27T03:04:28.269Z,6.36
2023-04-27T03:05:27.968Z,6.38
2023-04-27T03:06:27.967Z,6.36
2023-04-27T03:07:27.942Z,6.36
2023-04-27T03:08:27.981Z,6.35
2023-04-27T03:09:27.918Z,6.36
2023-04-27T03:10:27.895Z,6.35
2023-04-27T03:11:27.889Z,6.33
2023-04-27T03:12:27.922Z,6.35
2023-04-27T03:13:27.884Z,6.33
2023-04-27T03:14:27.873Z,6.36
2023-04-27T03:15:34.936Z,6.33
2023-04-27T03:16:27.865Z,6.30
2023-04-27T03:17:27.813Z,6.30
2023-04-27T03:18:27.790Z,6.28
2023-04-27T03:19:27.766Z,6.28
2023-04-27T03:20:27.769Z,6.28
2023-04-27T03:21:27.748Z,6.29
2023-04-27T03:22:27.741Z,6.28
2023-04-27T03:23:27.724Z,6.26
2023-04-27T03:24:27.727Z,6.26
2023-04-27T03:25:27.826Z,6.26
2023-04-27T03:26:27.701Z,6.26
2023-04-27T03:27:27.671Z,6.29
2023-04-27T03:28:27.671Z,6.29
2023-04-27T03:29:27.669Z,6.28
2023-04-27T03:30:27.637Z,6.28
2023-04-27T03:31:27.653Z,6.26
2023-04-27T03:32:27.651Z,6.26
2023-04-27T03:33:27.584Z,6.26
2023-04-27T03:34:27.581Z,6.25
2023-04-27T03:35:27.588Z,6.25
2023-04-27T03:36:27.549Z,6.26
2023-04-27T03:37:27.544Z,6.26
2023-04-27T03:38:27.536Z,6.25
2023-04-27T03:39:27.525Z,6.25
2023-04-27T03:40:27.494Z,6.22
2023-04-27T03:41:27.501Z,6.22
2023-04-27T03:42:27.483Z,6.22
2023-04-27T03:43:27.450Z,6.22
2023-04-27T03:44:27.456Z,6.21
2023-04-27T03:45:27.449Z,6.25
2023-04-27T03:46:27.603Z,6.22
2023-04-27T03:47:27.431Z,6.22
2023-04-27T03:48:27.402Z,6.22
2023-04-27T03:49:27.371Z,6.21
2023-04-27T03:50:28.904Z,6.21
2023-04-27T03:51:27.378Z,6.21
2023-04-27T03:52:27.349Z,6.19
2023-04-27T03:53:27.332Z,6.21
2023-04-27T03:54:27.314Z,6.21
2023-04-27T03:55:27.293Z,6.21
2023-04-27T03:56:27.306Z,6.19
2023-04-27T03:57:27.290Z,6.19
2023-04-27T03:58:27.262Z,6.21
2023-04-27T03:59:27.253Z,6.21
2023-04-27T04:00:27.232Z,6.22
2023-04-27T04:01:27.237Z,6.21
2023-04-27T04:02:27.385Z,6.21
2023-04-27T04:03:27.427Z,6.21
2023-04-27T04:04:27.416Z,6.21
2023-04-27T04:05:27.181Z,6.21
2023-04-27T04:06:27.181Z,6.21
2023-04-27T04:07:27.153Z,6.21
2023-04-27T04:08:27.127Z,6.21
2023-04-27T04:09:27.167Z,6.22
2023-04-27T04:10:27.117Z,6.25
2023-04-27T04:11:27.091Z,6.26
2023-04-27T04:12:27.078Z,6.26
2023-04-27T04:13:27.096Z,6.26
2023-04-27T04:14:27.078Z,6.25
2023-04-27T04:15:27.061Z,6.25
2023-04-27T04:16:27.098Z,6.26
2023-04-27T04:17:27.070Z,6.29
2023-04-27T04:18:27.003Z,6.28
2023-04-27T04:19:26.997Z,6.29
2023-04-27T04:20:26.988Z,6.29
2023-04-27T04:21:26.980Z,6.30
2023-04-27T04:22:26.966Z,6.32
2023-04-27T04:23:26.953Z,6.30
2023-04-27T04:24:26.949Z,6.29
2023-04-27T04:25:26.926Z,6.25
2023-04-27T04:26:26.944Z,6.26
2023-04-27T04:27:26.881Z,6.26
2023-04-27T04:28:26.895Z,6.28
2023-04-27T04:29:26.858Z,6.28
2023-04-27T04:30:26.864Z,6.29
2023-04-27T04:31:26.912Z,6.29
2023-04-27T04:32:26.870Z,6.29
2023-04-27T04:33:26.804Z,6.28
2023-04-27T04:34:26.806Z,6.26
2023-04-27T04:35:26.811Z,6.28
2023-04-27T04:36:26.779Z,6.29
2023-04-27T04:37:26.776Z,6.26
2023-04-27T04:38:26.804Z,6.28
2023-04-27T04:39:26.743Z,6.28
2023-04-27T04:40:26.753Z,6.29
2023-04-27T04:41:26.811Z,6.29
2023-04-27T04:42:26.715Z,6.28
2023-04-27T04:43:26.688Z,6.28
2023-04-27T04:44:26.699Z,6.30
2023-04-27T04:45:26.663Z,6.32
2023-04-27T04:46:26.694Z,6.33
2023-04-27T04:47:26.738Z,6.38
2023-04-27T04:48:26.642Z,6.38
2023-04-27T04:49:26.611Z,6.40
2023-04-27T04:50:26.601Z,6.41
2023-04-27T04:51:26.595Z,6.46
2023-04-27T04:52:26.596Z,6.46
2023-04-27T04:53:26.569Z,6.48
2023-04-27T04:54:26.563Z,6.48
2023-04-27T04:55:26.560Z,6.48
2023-04-27T04:56:26.534Z,6.51
2023-04-27T04:57:26.497Z,6.53
2023-04-27T04:58:26.498Z,6.54
2023-04-27T04:59:26.487Z,6.58
2023-04-27T05:00:26.479Z,6.59
2023-04-27T05:01:26.475Z,6.59
2023-04-27T05:02:26.556Z,6.61
2023-04-27T05:03:26.581Z,6.63
2023-04-27T05:04:26.584Z,6.66
2023-04-27T05:05:26.419Z,6.65
2023-04-27T05:06:26.402Z,6.68
2023-04-27T05:07:26.392Z,6.72
2023-04-27T05:08:26.371Z,6.73
2023-04-27T05:09:26.338Z,6.77
2023-04-27T05:10:26.320Z,6.80
2023-04-27T05:11:26.318Z,6.81
2023-04-27T05:12:26.341Z,6.80
2023-04-27T05:13:26.300Z,6.80
2023-04-27T05:14:26.337Z,6.81
2023-04-27T05:15:26.283Z,6.76
2023-04-27T05:16:26.279Z,6.79
2023-04-27T05:17:26.269Z,6.76
2023-04-27T05:18:26.250Z,6.73
2023-04-27T05:19:26.221Z,6.72
2023-04-27T05:20:26.205Z,6.72
2023-04-27T05:21:26.210Z,6.80
2023-04-27T05:22:26.275Z,6.81
2023-04-27T05:23:26.170Z,6.84
2023-04-27T05:24:26.153Z,6.79
2023-04-27T05:25:26.137Z,6.77
2023-04-27T05:26:26.131Z,6.73
2023-04-27T05:27:26.133Z,6.76
2023-04-27T05:28:26.118Z,6.73
2023-04-27T05:29:26.073Z,6.73
2023-04-27T05:30:26.082Z,6.76
2023-04-27T05:31:26.087Z,6.77
2023-04-27T05:32:26.074Z,6.83
2023-04-27T05:33:26.030Z,6.87
2023-04-27T05:34:26.030Z,6.86
2023-04-27T05:35:26.000Z,6.81
2023-04-27T05:36:26.017Z,6.79
2023-04-27T05:37:25.999Z,6.79
2023-04-27T05:38:25.961Z,6.81
2023-04-27T05:39:25.988Z,6.86
2023-04-27T05:40:25.957Z,6.87
2023-04-27T05:41:25.939Z,6.94
2023-04-27T05:42:25.923Z,6.98
2023-04-27T05:43:25.910Z,7.05
2023-04-27T05:44:25.886Z,7.07
2023-04-27T05:45:25.867Z,7.12
2023-04-27T05:46:25.905Z,7.09
2023-04-27T05:47:25.859Z,7.05
2023-04-27T05:48:25.865Z,7.05
2023-04-27T05:49:25.836Z,7.04
2023-04-27T05:50:25.837Z,7.02
2023-04-27T05:51:25.828Z,7.04
2023-04-27T05:52:25.794Z,7.02
2023-04-27T05:53:25.770Z,6.97
2023-04-27T05:54:25.776Z,6.97
2023-04-27T05:55:25.756Z,6.98
2023-04-27T05:56:25.726Z,7.07
2023-04-27T05:57:25.716Z,7.13
2023-04-27T05:58:25.719Z,7.12
2023-04-27T05:59:25.697Z,7.22
2023-04-27T06:00:25.691Z,7.24
2023-04-27T06:01:25.671Z,7.22
2023-04-27T06:02:25.814Z,7.19
2023-04-27T06:03:25.852Z,7.20
2023-04-27T06:04:25.791Z,7.24
2023-04-27T06:05:25.698Z,7.26
2023-04-27T06:06:25.616Z,7.26
2023-04-27T06:07:25.599Z,7.26
2023-04-27T06:08:25.577Z,7.29
2023-04-27T06:09:25.585Z,7.34
2023-04-27T06:10:25.561Z,7.42
2023-04-27T06:11:25.536Z,7.42
2023-04-27T06:12:25.548Z,7.49
2023-04-27T06:13:25.542Z,7.52
2023-04-27T06:14:25.500Z,7.44
2023-04-27T06:15:25.514Z,7.47
2023-04-27T06:16:25.521Z,7.49
2023-04-27T06:17:25.474Z,7.47
2023-04-27T06:18:25.512Z,7.45
2023-04-27T06:19:25.455Z,7.42
2023-04-27T06:20:25.434Z,7.50
2023-04-27T06:21:25.438Z,7.58
2023-04-27T06:22:25.407Z,7.59
2023-04-27T06:23:25.399Z,7.60
2023-04-27T06:24:25.398Z,7.58
2023-04-27T06:25:27.306Z,7.52
2023-04-27T06:26:25.371Z,7.50
2023-04-27T06:27:25.351Z,7.50
2023-04-27T06:28:25.316Z,7.45
2023-04-27T06:29:25.322Z,7.41
2023-04-27T06:30:25.307Z,7.40
2023-04-27T06:31:25.302Z,7.50
2023-04-27T06:32:25.310Z,7.60
2023-04-27T06:33:25.273Z,7.81
2023-04-27T06:34:25.237Z,7.92
2023-04-27T06:35:25.224Z,7.90
2023-04-27T06:36:25.206Z,7.97
2023-04-27T06:37:25.213Z,7.97
2023-04-27T06:38:25.196Z,8.02
2023-04-27T06:39:25.189Z,8.15
2023-04-27T06:40:25.183Z,8.25
2023-04-27T06:41:25.268Z,8.18
2023-04-27T06:42:25.155Z,8.17
2023-04-27T06:43:25.151Z,8.12
2023-04-27T06:44:25.107Z,8.10
2023-04-27T06:45:25.092Z,8.00
2023-04-27T06:46:25.106Z,7.96
2023-04-27T06:47:25.066Z,8.08
2023-04-27T06:48:25.088Z,8.14
2023-04-27T06:49:25.050Z,8.07
2023-04-27T06:50:25.050Z,8.00
2023-04-27T06:51:25.072Z,7.97
2023-04-27T06:52:25.002Z,7.93
2023-04-27T06:53:25.010Z,7.92
2023-04-27T06:54:24.983Z,7.94
2023-04-27T06:55:24.983Z,8.00
2023-04-27T06:56:24.955Z,8.00
2023-04-27T06:57:24.992Z,8.08
2023-04-27T06:58:24.912Z,8.02
2023-04-27T06:59:24.977Z,7.93
2023-04-27T07:00:24.901Z,7.82
2023-04-27T07:01:24.925Z,7.81
2023-04-27T07:02:25.708Z,7.82
2023-04-27T07:03:24.961Z,7.79
2023-04-27T07:04:24.987Z,7.77
2023-04-27T07:05:24.834Z,7.74
2023-04-27T07:06:24.827Z,7.78
2023-04-27T07:07:24.812Z,7.81
2023-04-27T07:08:24.978Z,7.81
2023-04-27T07:09:27.732Z,7.89
2023-04-27T07:10:24.782Z,7.96
2023-04-27T07:11:24.796Z,7.97
2023-04-27T07:12:24.752Z,8.03
2023-04-27T07:13:24.750Z,8.08
2023-04-27T07:14:24.724Z,8.14
2023-04-27T07:15:24.720Z,8.14
2023-04-27T07:16:24.710Z,8.12
2023-04-27T07:17:24.739Z,8.14
2023-04-27T07:18:24.670Z,8.17
2023-04-27T07:19:24.654Z,8.18
2023-04-27T07:20:26.679Z,8.07
2023-04-27T07:21:24.626Z,8.03
2023-04-27T07:22:24.619Z,8.04
2023-04-27T07:23:24.610Z,8.00
2023-04-27T07:24:24.582Z,8.02
2023-04-27T07:25:24.612Z,7.97
2023-04-27T07:26:24.558Z,7.92
2023-04-27T07:27:24.577Z,7.94
2023-04-27T07:28:24.534Z,7.92
2023-04-27T07:29:27.354Z,7.94
2023-04-27T07:30:24.509Z,7.99
2023-04-27T07:31:24.558Z,8.02
2023-04-27T07:32:24.527Z,8.14
2023-04-27T07:33:24.457Z,8.20
2023-04-27T07:34:24.487Z,8.17
2023-04-27T07:35:24.505Z,8.21
2023-04-27T07:36:24.438Z,8.29
2023-04-27T07:37:24.418Z,8.29
2023-04-27T07:38:24.400Z,8.33
2023-04-27T07:39:24.419Z,8.39
2023-04-27T07:40:24.402Z,8.45
2023-04-27T07:41:24.380Z,8.54
2023-04-27T07:42:24.347Z,8.71
2023-04-27T07:43:24.352Z,8.72
2023-04-27T07:44:24.308Z,8.76
2023-04-27T07:45:24.384Z,8.79
2023-04-27T07:46:24.354Z,9.01
2023-04-27T07:47:24.315Z,9.01
2023-04-27T07:48:24.321Z,8.90
2023-04-27T07:49:24.253Z,8.86
2023-04-27T07:50:24.340Z,8.86
2023-04-27T07:51:24.276Z,8.84
2023-04-27T07:52:24.227Z,8.75
2023-04-27T07:53:24.197Z,8.62
2023-04-27T07:54:24.188Z,8.45
2023-04-27T07:55:24.197Z,8.45
2023-04-27T07:56:24.238Z,8.48
2023-04-27T07:57:24.157Z,8.63
2023-04-27T07:58:24.131Z,8.76
2023-04-27T07:59:24.123Z,8.88
2023-04-27T08:00:24.158Z,8.99
2023-04-27T08:01:24.106Z,9.01
2023-04-27T08:02:24.221Z,9.01
2023-04-27T08:03:24.256Z,9.18
2023-04-27T08:04:24.386Z,9.34
2023-04-27T08:05:24.601Z,9.27
2023-04-27T08:06:24.758Z,9.24
2023-04-27T08:07:24.231Z,9.35
2023-04-27T08:08:24.005Z,9.43
2023-04-27T08:09:24.024Z,9.66
2023-04-27T08:10:24.032Z,9.53
2023-04-27T08:11:23.987Z,9.43
2023-04-27T08:12:23.962Z,9.39
2023-04-27T08:13:25.489Z,9.31
2023-04-27T08:14:23.961Z,9.30
2023-04-27T08:15:23.947Z,9.35
2023-04-27T08:16:23.933Z,9.43
2023-04-27T08:17:23.909Z,9.50
2023-04-27T08:18:23.871Z,9.45
2023-04-27T08:19:23.874Z,9.23
2023-04-27T08:20:23.880Z,9.13
2023-04-27T08:21:23.836Z,9.13
2023-04-27T08:22:23.840Z,8.99
2023-04-27T08:23:23.824Z,9.04
2023-04-27T08:24:23.810Z,9.06
2023-04-27T08:25:23.777Z,9.12
2023-04-27T08:26:25.743Z,9.18
2023-04-27T08:27:23.775Z,9.18
2023-04-27T08:28:23.737Z,9.20
2023-04-27T08:29:27.775Z,9.12
2023-04-27T08:30:23.784Z,9.05
2023-04-27T08:31:23.750Z,9.01
2023-04-27T08:32:23.736Z,8.99
2023-04-27T08:33:23.715Z,8.93
2023-04-27T08:34:23.681Z,8.91
2023-04-27T08:35:23.676Z,8.93
2023-04-27T08:36:23.657Z,8.97
2023-04-27T08:37:23.644Z,8.97
2023-04-27T08:38:25.594Z,9.01
2023-04-27T08:39:23.612Z,9.09
2023-04-27T08:40:23.668Z,9.09
2023-04-27T08:41:23.600Z,9.09
2023-04-27T08:42:23.575Z,9.09
2023-04-27T08:43:23.552Z,9.16
2023-04-27T08:44:23.536Z,9.23
2023-04-27T08:45:23.564Z,9.23
2023-04-27T08:46:23.549Z,9.27
2023-04-27T08:47:34.732Z,9.50
2023-04-27T08:48:24.540Z,9.70
2023-04-27T08:49:23.511Z,9.76
2023-04-27T08:50:23.523Z,9.81
2023-04-27T08:51:23.459Z,9.64
2023-04-27T08:52:23.472Z,9.63
2023-04-27T08:53:23.433Z,9.73
2023-04-27T08:54:23.415Z,9.64
2023-04-27T08:55:23.412Z,9.60
2023-04-27T08:56:23.429Z,9.63
2023-04-27T08:57:23.381Z,9.70
2023-04-27T08:58:23.369Z,9.82
2023-04-27T08:59:23.353Z,9.86
2023-04-27T09:00:23.325Z,9.88
2023-04-27T09:01:23.337Z,9.70
2023-04-27T09:02:23.349Z,9.45
2023-04-27T09:03:23.464Z,9.46
2023-04-27T09:04:23.438Z,9.50
2023-04-27T09:05:23.345Z,9.56
2023-04-27T09:06:23.410Z,9.61
2023-04-27T09:07:23.240Z,9.42
2023-04-27T09:08:23.221Z,9.38
2023-04-27T09:09:23.210Z,9.40
2023-04-27T09:10:23.214Z,9.46
2023-04-27T09:11:23.204Z,9.43
2023-04-27T09:12:23.200Z,9.39
2023-04-27T09:13:23.188Z,9.31
2023-04-27T09:14:23.177Z,9.40
2023-04-27T09:15:23.145Z,9.49
2023-04-27T09:16:30.322Z,9.58
2023-04-27T09:17:23.140Z,9.75
2023-04-27T09:18:23.114Z,9.73
2023-04-27T09:19:23.125Z,9.81
2023-04-27T09:20:23.135Z,9.71
2023-04-27T09:21:23.095Z,9.75
2023-04-27T09:22:23.055Z,9.75
2023-04-27T09:23:23.061Z,9.71
2023-04-27T09:24:23.015Z,9.67
2023-04-27T09:25:23.013Z,9.64
2023-04-27T09:26:23.040Z,9.78
2023-04-27T09:27:22.998Z,9.86
2023-04-27T09:28:23.014Z,10.00
2023-04-27T09:29:22.957Z,10.17
2023-04-27T09:30:23.003Z,10.26
2023-04-27T09:31:22.974Z,10.19
2023-04-27T09:32:22.977Z,10.07
2023-04-27T09:33:22.912Z,9.96
2023-04-27T09:34:22.875Z,10.04
2023-04-27T09:35:22.898Z,10.03
2023-04-27T09:36:22.870Z,10.03
2023-04-27T09:37:22.840Z,9.89
2023-04-27T09:38:22.824Z,9.82
2023-04-27T09:39:22.824Z,9.73
2023-04-27T09:40:22.878Z,9.70
2023-04-27T09:41:22.836Z,9.68
2023-04-27T09:42:22.935Z,9.71
2023-04-27T09:43:22.758Z,9.78
2023-04-27T09:44:22.751Z,9.75
2023-04-27T09:45:22.732Z,9.82
2023-04-27T09:46:22.829Z,9.96
2023-04-27T09:47:22.738Z,9.93
2023-04-27T09:48:22.704Z,10.04
2023-04-27T09:49:22.705Z,10.10
2023-04-27T09:50:22.697Z,10.12
2023-04-27T09:51:22.681Z,10.17
2023-04-27T09:52:22.650Z,10.12
2023-04-27T09:53:22.645Z,9.96
2023-04-27T09:54:22.623Z,9.83
2023-04-27T09:55:22.642Z,9.81
2023-04-27T09:56:22.618Z,9.78
2023-04-27T09:57:22.589Z,9.73
2023-04-27T09:58:22.597Z,9.75
2023-04-27T09:59:22.587Z,9.79
2023-04-27T10:00:22.627Z,9.86
2023-04-27T10:01:22.576Z,9.99
2023-04-27T10:02:24.724Z,9.99
2023-04-27T10:03:22.603Z,10.01
2023-04-27T10:04:22.797Z,10.03
2023-04-27T10:05:22.515Z,10.06
2023-04-27T10:06:22.466Z,10.15
2023-04-27T10:07:22.458Z,10.22
2023-04-27T10:08:22.438Z,10.24
2023-04-27T10:09:22.459Z,10.28
2023-04-27T10:10:22.415Z,10.17
2023-04-27T10:11:22.407Z,10.24
2023-04-27T10:12:22.421Z,10.07
2023-04-27T10:13:22.385Z,10.04
2023-04-27T10:14:22.374Z,9.97
2023-04-27T10:15:22.357Z,9.85
2023-04-27T10:16:22.414Z,9.73
2023-04-27T10:17:22.347Z,9.76
2023-04-27T10:18:22.331Z,9.86
2023-04-27T10:19:22.316Z,10.00
2023-04-27T10:20:22.303Z,9.96
2023-04-27T10:21:22.292Z,10.07
2023-04-27T10:22:23.855Z,10.25
2023-04-27T10:23:22.264Z,10.34
2023-04-27T10:24:22.231Z,10.32
2023-04-27T10:25:22.284Z,10.37
2023-04-27T10:26:22.231Z,10.43
2023-04-27T10:27:22.193Z,10.33
2023-04-27T10:28:22.199Z,10.42
2023-04-27T10:29:22.183Z,10.43
2023-04-27T10:30:22.176Z,10.52
2023-04-27T10:31:22.234Z,10.77
2023-04-27T10:32:22.157Z,10.84
2023-04-27T10:33:22.149Z,10.86
2023-04-27T10:34:22.127Z,10.77
2023-04-27T10:35:22.129Z,10.77
2023-04-27T10:36:22.105Z,10.92
2023-04-27T10:37:22.058Z,11.02
2023-04-27T10:38:22.043Z,10.95
2023-04-27T10:39:25.610Z,10.95
2023-04-27T10:40:23.047Z,10.98
2023-04-27T10:41:22.029Z,11.01
2023-04-27T10:42:22.022Z,10.88
2023-04-27T10:43:22.102Z,10.55
2023-04-27T10:44:21.988Z,10.42
2023-04-27T10:45:21.952Z,10.28
2023-04-27T10:46:21.999Z,10.15
2023-04-27T10:47:21.935Z,10.09
2023-04-27T10:48:21.919Z,10.07
2023-04-27T10:49:21.924Z,10.14
2023-04-27T10:50:21.898Z,10.32
2023-04-27T10:51:21.913Z,10.43
2023-04-27T10:52:21.913Z,10.40
2023-04-27T10:53:21.886Z,10.55
2023-04-27T10:54:21.884Z,10.74
2023-04-27T10:55:21.836Z,10.73
2023-04-27T10:56:21.846Z,10.70
2023-04-27T10:57:21.824Z,10.65
2023-04-27T10:58:21.805Z,10.52
2023-04-27T10:59:21.773Z,10.52
2023-04-27T11:00:21.785Z,10.59
2023-04-27T11:01:21.770Z,10.71
2023-04-27T11:02:21.781Z,10.81
2023-04-27T11:03:21.816Z,10.74
2023-04-27T11:04:21.775Z,10.60
2023-04-27T11:05:21.714Z,10.74
2023-04-27T11:06:21.689Z,10.99
2023-04-27T11:07:21.687Z,11.20
2023-04-27T11:08:21.732Z,11.10
2023-04-27T11:09:21.673Z,11.11
2023-04-27T11:10:21.652Z,11.14
2023-04-27T11:11:21.617Z,11.07
2023-04-27T11:12:21.937Z,10.89
2023-04-27T11:13:21.596Z,10.68
2023-04-27T11:14:21.605Z,10.77
2023-04-27T11:15:21.592Z,10.80
2023-04-27T11:16:21.615Z,10.80
2023-04-27T11:17:21.580Z,10.78
2023-04-27T11:18:21.559Z,10.71
2023-04-27T11:19:21.526Z,10.78
2023-04-27T11:20:21.496Z,10.71
2023-04-27T11:21:21.529Z,10.62
2023-04-27T11:22:21.486Z,10.56
2023-04-27T11:23:21.459Z,10.65
2023-04-27T11:24:21.469Z,10.80
2023-04-27T11:25:21.440Z,10.88
2023-04-27T11:26:21.753Z,10.86
2023-04-27T11:27:21.441Z,10.91
2023-04-27T11:28:21.412Z,10.91
2023-04-27T11:29:21.419Z,10.83
2023-04-27T11:30:21.387Z,10.80
2023-04-27T11:31:21.399Z,10.86
2023-04-27T11:32:21.341Z,10.74
2023-04-27T11:33:21.324Z,10.74
2023-04-27T11:34:22.764Z,10.63
2023-04-27T11:35:21.376Z,10.65
2023-04-27T11:36:21.287Z,10.63
2023-04-27T11:37:21.286Z,10.66
2023-04-27T11:38:21.313Z,10.68
2023-04-27T11:39:21.351Z,10.76
2023-04-27T11:40:23.946Z,10.68
2023-04-27T11:41:21.251Z,10.59
2023-04-27T11:42:21.220Z,10.55
2023-04-27T11:43:21.187Z,10.46
2023-04-27T11:44:21.205Z,10.47
2023-04-27T11:45:21.171Z,10.58
2023-04-27T11:46:21.318Z,10.68
2023-04-27T11:47:21.190Z,10.68
2023-04-27T11:48:21.123Z,10.65
2023-04-27T11:49:21.125Z,10.66
2023-04-27T11:50:21.116Z,10.65
2023-04-27T11:51:21.124Z,10.58
2023-04-27T11:52:21.077Z,10.42
2023-04-27T11:53:21.104Z,10.37
2023-04-27T11:54:21.058Z,10.39
2023-04-27T11:55:21.056Z,10.37
2023-04-27T11:56:21.019Z,10.37
2023-04-27T11:57:21.023Z,10.42
2023-04-27T11:58:21.003Z,10.52
2023-04-27T11:59:21.007Z,10.65
2023-04-27T12:00:20.961Z,10.70
2023-04-27T12:01:27.783Z,10.70
2023-04-27T12:02:22.136Z,10.74
2023-04-27T12:03:21.171Z,10.76
2023-04-27T12:04:21.261Z,10.66
2023-04-27T12:05:21.257Z,10.59
2023-04-27T12:07:20.886Z,10.63
2023-04-27T12:08:20.921Z,10.66
2023-04-27T12:09:20.880Z,10.71
2023-04-27T12:10:20.861Z,10.86
2023-04-27T12:11:20.871Z,10.84
2023-04-27T12:12:20.816Z,10.86
2023-04-27T12:13:20.820Z,10.91
2023-04-27T12:14:20.812Z,10.96
2023-04-27T12:15:20.776Z,10.98
2023-04-27T12:16:20.816Z,10.98
2023-04-27T12:17:20.773Z,11.07
2023-04-27T12:18:20.788Z,11.06
2023-04-27T12:19:20.748Z,11.17
2023-04-27T12:20:20.723Z,11.38
2023-04-27T12:21:20.723Z,11.49
2023-04-27T12:22:20.722Z,11.39
2023-04-27T12:23:20.677Z,11.32
2023-04-27T12:24:20.665Z,11.21
2023-04-27T12:25:20.663Z,11.09
2023-04-27T12:26:20.640Z,11.10
2023-04-27T12:27:20.621Z,11.16
2023-04-27T12:28:20.602Z,11.19
2023-04-27T12:29:20.580Z,11.13
2023-04-27T12:30:20.580Z,11.16
2023-04-27T12:31:20.619Z,11.25
2023-04-27T12:32:20.611Z,11.25
2023-04-27T12:33:20.570Z,11.20
2023-04-27T12:34:20.516Z,11.25
2023-04-27T12:35:20.509Z,11.16
2023-04-27T12:36:20.536Z,11.49
2023-04-27T12:37:20.486Z,11.74
2023-04-27T12:38:20.463Z,11.75
2023-04-27T12:39:20.492Z,11.74
2023-04-27T12:40:20.455Z,11.64
2023-04-27T12:41:20.451Z,11.62
2023-04-27T12:42:20.434Z,11.59
2023-04-27T12:43:20.406Z,11.52
2023-04-27T12:44:20.414Z,11.49
2023-04-27T12:45:20.371Z,11.46
2023-04-27T12:46:20.421Z,11.49
2023-04-27T12:47:40.566Z,11.54
2023-04-27T12:48:21.378Z,11.65
2023-04-27T12:49:20.454Z,11.54
2023-04-27T12:50:20.352Z,11.62
2023-04-27T12:51:20.304Z,11.59
2023-04-27T12:52:20.299Z,11.59
2023-04-27T12:53:20.281Z,11.59
2023-04-27T12:54:20.264Z,11.53
2023-04-27T12:55:32.182Z,11.49
2023-04-27T12:56:21.248Z,11.56
2023-04-27T12:57:20.235Z,11.70
2023-04-27T12:58:20.242Z,11.74
2023-04-27T12:59:20.195Z,11.68
2023-04-27T13:00:20.182Z,11.72
2023-04-27T13:01:20.190Z,11.70
2023-04-27T13:02:20.304Z,11.70
2023-04-27T13:03:20.373Z,11.67
2023-04-27T13:04:21.164Z,11.72
2023-04-27T13:05:20.126Z,11.83
2023-04-27T13:06:20.090Z,11.75
2023-04-27T13:07:20.098Z,11.59
2023-04-27T13:08:20.089Z,11.65
2023-04-27T13:09:20.069Z,11.52
2023-04-27T13:10:20.110Z,11.64
2023-04-27T13:11:20.066Z,11.70
2023-04-27T13:12:20.098Z,11.89